Amlwch, United Kingdom
Current Conditions -  °F | °C
As of 1:19 PM on Thursday 30 Oct 2014 (Local Time) from EGOV Reporting Station
Drizzle Drizzle  
Wind Chill: 59°   Ceiling: 2400
Heat Index: 59°   Visibility: 4mi
Dew Point: 57°   Wind: 16mph
Humidity: 94%   Direction: 160°SSE
Pressure: 29.91"   Gusts: NA
Location:  53.41°N, 4.35°W
Report Text: EGOV 301319Z 16014KT 6000 -DZ FEW005 SCT010 BKN024 15/14 Q1013 GRN TEMPO 9999 NSW GRN
Loading
Personal Weather Stations






























Interactive Weather Map
Tropical Storm Tracking
New forecast layout! Learn more

10-Day Weather Forecast

Advertisements
Track Severe Weather on mobile